Time;durP1;ratioP1;P1;durP2;ratioP2;P2;SDS_P1;SDS_P2;PMS_P1;PMS_P2;Temp;Humidity;BMP_temperature;BMP_pressure;BME280_temperature;BME280_humidity;BME280_pressure;Samples;Min_cycle;Max_cycle;Signal;HPM_P1;HPM_P2
2021/12/02 00:02:18;;;;;;;7.35;2.05;;;;;;;1.94;100.00;100172.31;4985625;28;20051;-93
2021/12/02 00:04:45;;;;;;;10.48;2.38;;;;;;;1.85;100.00;100118.22;5008223;28;20137;-94
2021/12/02 00:07:12;;;;;;;7.85;1.90;;;;;;;1.72;100.00;100158.78;4994100;28;20056;-92
2021/12/02 00:09:40;;;;;;;13.05;1.98;;;;;;;1.54;100.00;100126.31;5008467;28;20050;-93
2021/12/02 00:12:07;;;;;;;12.98;2.22;;;;;;;2.02;100.00;100167.94;4996807;28;20061;-92
2021/12/02 00:14:43;;;;;;;15.75;2.10;;;;;;;1.90;100.00;100144.81;5016358;28;20064;-93
2021/12/02 00:17:17;;;;;;;11.15;2.28;;;;;;;1.85;100.00;100108.72;5006903;28;20133;-93
2021/12/02 00:22:33;;;;;;;8.18;1.85;;;;;;;2.31;100.00;100181.38;4985721;28;20207;-93
2021/12/02 00:25:03;;;;;;;7.70;2.00;;;;;;;2.17;100.00;100215.09;5003058;28;20056;-93
2021/12/02 00:27:30;;;;;;;10.50;2.13;;;;;;;2.00;100.00;100221.31;5001181;28;20149;-93
2021/12/02 00:29:59;;;;;;;11.48;2.08;;;;;;;2.17;100.00;100241.78;5000127;28;20050;-93
2021/12/02 00:32:29;;;;;;;11.27;3.28;;;;;;;1.69;100.00;100164.81;4992193;28;20056;-93
2021/12/02 00:34:57;;;;;;;6.72;1.80;;;;;;;1.74;100.00;100195.75;4993008;28;20412;-92
2021/12/02 00:37:24;;;;;;;6.25;1.95;;;;;;;2.01;100.00;100217.00;5006308;28;20056;-92
2021/12/02 00:39:52;;;;;;;9.27;1.83;;;;;;;2.02;100.00;100221.28;4990733;28;20412;-93
2021/12/02 00:42:20;;;;;;;7.70;1.52;;;;;;;1.98;100.00;100222.19;4992047;28;20057;-92
2021/12/02 00:44:47;;;;;;;12.20;2.15;;;;;;;1.93;100.00;100203.31;4992484;28;20054;-91
2021/12/02 00:47:16;;;;;;;8.48;2.30;;;;;;;1.91;100.00;100231.72;4993328;28;20046;-90
2021/12/02 00:49:45;;;;;;;8.80;1.95;;;;;;;1.94;100.00;100220.53;4992401;28;20061;-91
2021/12/02 00:52:13;;;;;;;8.38;2.50;;;;;;;1.96;100.00;100223.94;4992294;28;20046;-90
2021/12/02 00:54:42;;;;;;;13.68;1.95;;;;;;;1.80;100.00;100224.09;4992540;28;20124;-89
2021/12/02 00:57:12;;;;;;;11.80;2.20;;;;;;;2.02;100.00;100245.41;5002262;28;20052;-90
2021/12/02 00:59:39;;;;;;;9.57;2.08;;;;;;;1.96;100.00;100216.19;4996787;28;20057;-90
2021/12/02 01:02:08;;;;;;;11.07;2.45;;;;;;;2.01;100.00;100248.84;4993790;28;20146;-90
2021/12/02 01:04:36;;;;;;;11.15;1.98;;;;;;;1.97;100.00;100223.94;5007994;28;20057;-90
2021/12/02 01:07:03;;;;;;;10.32;3.97;;;;;;;2.01;100.00;100220.44;5013224;28;20061;-90
2021/12/02 01:09:31;;;;;;;11.65;1.58;;;;;;;2.06;100.00;100215.22;4987539;28;20098;-90
2021/12/02 01:11:58;;;;;;;11.48;2.53;;;;;;;1.79;100.00;100232.72;4988989;28;20054;-90
2021/12/02 01:14:25;;;;;;;6.40;1.83;;;;;;;1.92;100.00;100266.16;4999837;28;20050;-90
2021/12/02 01:16:52;;;;;;;13.23;2.00;;;;;;;1.96;100.00;100236.84;5011785;28;20053;-90
2021/12/02 01:19:19;;;;;;;5.70;1.40;;;;;;;1.61;100.00;100217.38;5003768;28;20046;-90
2021/12/02 01:21:47;;;;;;;13.65;2.03;;;;;;;1.92;100.00;100211.94;4993639;28;20072;-89
2021/12/02 01:24:18;;;;;;;5.00;1.58;;;;;;;1.74;100.00;100211.25;4993799;28;20046;-90
2021/12/02 01:26:51;;;;;;;10.05;1.80;;;;;;;1.86;100.00;100203.38;4995232;28;20056;-90
2021/12/02 01:29:22;;;;;;;5.63;1.73;;;;;;;2.25;100.00;100264.97;5004498;28;20123;-90
2021/12/02 01:31:52;;;;;;;15.93;2.60;;;;;;;2.26;100.00;100257.16;4994353;28;20076;-90
2021/12/02 01:34:27;;;;;;;7.97;1.70;;;;;;;2.32;100.00;100302.78;5012809;28;20077;-90
2021/12/02 01:36:55;;;;;;;7.43;1.65;;;;;;;1.77;100.00;100272.31;5012918;28;20046;-90
2021/12/02 01:39:23;;;;;;;9.10;1.73;;;;;;;1.98;100.00;100310.84;5012571;28;20404;-90
2021/12/02 01:41:55;;;;;;;11.32;3.05;;;;;;;1.43;100.00;100314.72;5012786;28;20067;-90
2021/12/02 01:44:24;;;;;;;8.60;1.73;;;;;;;1.72;100.00;100308.50;5010105;28;20056;-90
2021/12/02 01:46:57;;;;;;;5.97;2.00;;;;;;;1.54;100.00;100296.59;4996973;28;20403;-89
2021/12/02 01:49:35;;;;;;;5.72;1.70;;;;;;;1.74;100.00;100335.16;5010847;28;20060;-89
2021/12/02 01:52:03;;;;;;;6.55;2.25;;;;;;;1.62;100.00;100324.91;4992659;28;20061;-89
2021/12/02 01:54:30;;;;;;;5.25;1.40;;;;;;;1.42;100.00;100349.13;5009624;28;20052;-89
2021/12/02 01:57:06;;;;;;;5.00;1.30;;;;;;;1.41;100.00;100315.59;5016720;28;20072;-90
2021/12/02 01:59:35;;;;;;;3.25;1.20;;;;;;;1.67;100.00;100328.31;5014718;28;20050;-90
2021/12/02 02:02:09;;;;;;;7.10;1.30;;;;;;;1.61;100.00;100342.13;4996537;28;20046;-89
2021/12/02 02:04:37;;;;;;;8.82;1.80;;;;;;;1.11;100.00;100259.03;5012061;28;20546;-89
2021/12/02 02:07:15;;;;;;;3.88;1.45;;;;;;;1.19;100.00;100279.63;5016611;28;20054;-89
2021/12/02 02:09:44;;;;;;;4.50;1.52;;;;;;;1.50;100.00;100300.06;4998095;28;20137;-89
2021/12/02 02:12:13;;;;;;;7.30;1.75;;;;;;;1.74;100.00;100340.31;4993296;28;20653;-89
2021/12/02 02:14:41;;;;;;;10.63;2.08;;;;;;;1.76;100.00;100306.75;4996627;28;20145;-89
2021/12/02 02:17:24;;;;;;;11.00;1.90;;;;;;;1.64;100.00;100277.56;4996860;28;20065;-89
2021/12/02 02:19:52;;;;;;;9.45;1.90;;;;;;;1.95;100.00;100331.53;4997936;28;20051;-88
2021/12/02 02:22:22;;;;;;;13.27;2.10;;;;;;;1.93;100.00;100319.50;4997724;28;20412;-89
2021/12/02 02:24:50;;;;;;;6.35;1.67;;;;;;;2.35;100.00;100358.72;4996771;28;20062;-89
2021/12/02 02:27:17;;;;;;;14.55;2.42;;;;;;;2.02;100.00;100371.94;4996549;28;20054;-89
2021/12/02 02:29:44;;;;;;;10.15;1.85;;;;;;;1.63;100.00;100335.22;4996470;28;20136;-89
2021/12/02 02:32:11;;;;;;;11.68;2.30;;;;;;;1.68;100.00;100327.44;4996474;28;20056;-88
2021/12/02 02:34:38;;;;;;;13.15;2.42;;;;;;;1.89;100.00;100384.09;4996510;28;20412;-88
2021/12/02 02:37:07;;;;;;;8.25;1.90;;;;;;;1.82;100.00;100335.94;4996328;28;20141;-88
2021/12/02 02:39:35;;;;;;;7.78;1.73;;;;;;;1.57;100.00;100298.28;4996004;28;20051;-89
2021/12/02 02:42:05;;;;;;;7.38;1.95;;;;;;;2.14;100.00;100359.78;4996032;28;20050;-89
2021/12/02 02:44:33;;;;;;;14.20;2.20;;;;;;;2.12;100.00;100369.25;4996198;28;20049;-88
2021/12/02 02:47:01;;;;;;;17.42;2.85;;;;;;;2.05;100.00;100337.47;4996395;28;20498;-89
2021/12/02 02:49:27;;;;;;;12.85;2.17;;;;;;;1.94;100.00;100321.22;4996056;28;20051;-89
2021/12/02 02:51:54;;;;;;;11.18;2.42;;;;;;;2.37;100.00;100362.13;4995792;28;20133;-89
2021/12/02 02:54:22;;;;;;;10.63;2.15;;;;;;;2.11;100.00;100346.88;4994614;28;20050;-89
2021/12/02 02:56:57;;;;;;;8.70;2.10;;;;;;;2.19;100.00;100322.69;4995730;28;20129;-88
2021/12/02 02:59:42;;;;;;;11.50;2.40;;;;;;;2.34;100.00;100372.50;4995438;28;20627;-87
2021/12/02 03:07:21;;;;;;;15.00;3.45;;;;;;;2.28;100.00;100432.84;4996950;28;20073;-88
2021/12/02 03:17:32;;;;;;;11.85;2.78;;;;;;;2.12;100.00;100402.84;4996778;28;20078;-89
2021/12/02 03:20:00;;;;;;;18.70;2.90;;;;;;;2.31;100.00;100390.63;4995375;28;20046;-89
2021/12/02 03:22:27;;;;;;;17.85;2.65;;;;;;;2.37;100.00;100390.56;4994895;28;20060;-90
2021/12/02 03:24:54;;;;;;;14.38;3.53;;;;;;;2.33;100.00;100345.81;4996870;28;20130;-90
2021/12/02 03:27:21;;;;;;;17.48;3.28;;;;;;;2.69;100.00;100422.97;4995813;28;20057;-90
2021/12/02 03:29:48;;;;;;;14.80;3.55;;;;;;;2.32;100.00;100382.88;4995525;28;20129;-89
2021/12/02 03:32:14;;;;;;;13.15;3.00;;;;;;;2.26;100.00;100437.16;4995264;28;20488;-89
2021/12/02 03:34:41;;;;;;;10.70;2.33;;;;;;;2.21;100.00;100400.19;4996448;28;20468;-89
2021/12/02 03:37:09;;;;;;;11.80;2.88;;;;;;;2.62;100.00;100432.53;4994874;28;20060;-89
2021/12/02 03:39:36;;;;;;;15.15;2.58;;;;;;;2.44;100.00;100425.81;4994735;28;20042;-89
2021/12/02 03:42:05;;;;;;;10.50;2.70;;;;;;;2.01;100.00;100402.94;4994678;28;20046;-89
2021/12/02 03:44:31;;;;;;;19.13;4.30;;;;;;;2.24;100.00;100406.16;4994782;28;20484;-89
2021/12/02 03:46:58;;;;;;;14.77;2.78;;;;;;;2.26;100.00;100404.44;4994321;28;20072;-88
2021/12/02 03:49:26;;;;;;;12.30;3.22;;;;;;;2.22;100.00;100404.47;4996077;28;20134;-89
2021/12/02 03:51:52;;;;;;;21.25;3.15;;;;;;;2.48;100.00;100445.59;4994045;28;20050;-88
2021/12/02 03:54:20;;;;;;;23.15;4.25;;;;;;;2.51;100.00;100445.56;4995862;28;20055;-89
2021/12/02 03:56:47;;;;;;;16.25;3.85;;;;;;;2.44;100.00;100428.38;4994740;28;20058;-88
2021/12/02 03:59:14;;;;;;;13.70;2.85;;;;;;;2.28;100.00;100409.59;4993378;28;20497;-88
2021/12/02 04:01:41;;;;;;;18.52;2.95;;;;;;;2.49;100.00;100457.63;4992734;28;20050;-88
2021/12/02 04:04:08;;;;;;;26.20;5.93;;;;;;;2.37;100.00;100452.56;4992817;28;20050;-87
2021/12/02 04:06:34;;;;;;;24.10;4.53;;;;;;;2.54;100.00;100475.69;4983186;28;20145;-87
2021/12/02 04:09:22;;;;;;;22.95;4.75;;;;;;;2.37;100.00;100439.66;5006473;28;20042;-87
2021/12/02 04:14:32;;;;;;;27.80;4.93;;;;;;;2.66;100.00;100447.16;5006927;28;20056;-87
2021/12/02 04:17:02;;;;;;;18.27;3.38;;;;;;;2.69;100.00;100448.84;5013316;28;20057;-87
2021/12/02 04:19:30;;;;;;;29.00;3.90;;;;;;;2.71;100.00;100460.00;5012154;28;20046;-87
2021/12/02 04:21:58;;;;;;;20.65;4.50;;;;;;;2.71;100.00;100460.00;4995658;28;20058;-88
2021/12/02 04:24:26;;;;;;;13.93;3.22;;;;;;;2.64;100.00;100460.09;4992657;28;20480;-87
2021/12/02 04:26:53;;;;;;;14.10;3.25;;;;;;;2.89;100.00;100472.78;4996464;28;20400;-88
2021/12/02 04:29:20;;;;;;;14.48;3.50;;;;;;;2.68;100.00;100452.31;4992235;28;20082;-87
2021/12/02 04:31:47;;;;;;;23.42;4.75;;;;;;;2.63;100.00;100445.44;4992636;28;20522;-87
2021/12/02 04:34:16;;;;;;;22.63;4.15;;;;;;;2.61;100.00;100454.09;4992317;28;20425;-87
2021/12/02 04:36:43;;;;;;;14.38;4.03;;;;;;;2.79;100.00;100440.97;4993874;28;20046;-88
2021/12/02 04:39:10;;;;;;;17.15;3.97;;;;;;;2.62;100.00;100436.00;4993401;28;20046;-88
2021/12/02 04:41:36;;;;;;;22.02;3.92;;;;;;;2.62;100.00;100423.06;4991208;28;20054;-87
2021/12/02 04:44:04;;;;;;;27.40;4.63;;;;;;;2.59;100.00;100420.50;4981153;28;20073;-88
2021/12/02 04:46:30;;;;;;;16.42;4.53;;;;;;;2.74;100.00;100439.31;4974433;28;20050;-87
2021/12/02 04:48:57;;;;;;;19.63;3.75;;;;;;;2.69;100.00;100397.13;4988859;28;20051;-88
2021/12/02 04:51:24;;;;;;;26.23;5.15;;;;;;;2.75;100.00;100423.78;4983936;28;20489;-88
2021/12/02 04:53:51;;;;;;;26.65;6.90;;;;;;;2.53;100.00;100405.03;4993712;28;20057;-88
2021/12/02 04:56:18;;;;;;;19.77;3.70;;;;;;;2.55;100.00;100403.31;4992414;28;20128;-87
2021/12/02 04:58:45;;;;;;;21.95;3.60;;;;;;;2.52;100.00;100418.84;4991456;28;20050;-87
2021/12/02 05:01:12;;;;;;;16.23;4.28;;;;;;;2.66;100.00;100437.66;4992060;28;20052;-87
2021/12/02 05:03:39;;;;;;;22.70;4.10;;;;;;;2.73;100.00;100415.19;4991308;28;20157;-87
2021/12/02 05:06:06;;;;;;;17.00;5.88;;;;;;;2.64;100.00;100433.38;4992094;28;20054;-87
2021/12/02 05:08:33;;;;;;;23.33;4.20;;;;;;;2.69;100.00;100429.00;4991722;28;20052;-87
2021/12/02 05:11:00;;;;;;;20.00;3.72;;;;;;;2.80;100.00;100422.00;4990151;28;20051;-87
2021/12/02 05:13:27;;;;;;;25.20;5.60;;;;;;;2.66;100.00;100429.91;4987571;28;20133;-87
2021/12/02 05:15:54;;;;;;;24.27;4.15;;;;;;;2.62;100.00;100432.53;5004778;28;20058;-86
2021/12/02 05:18:20;;;;;;;22.13;4.97;;;;;;;2.51;100.00;100437.78;4992455;28;20653;-87
2021/12/02 05:20:48;;;;;;;20.85;4.88;;;;;;;2.56;100.00;100446.38;4990746;28;20043;-86
2021/12/02 05:23:15;;;;;;;24.85;4.45;;;;;;;2.44;100.00;100430.97;4991808;28;20510;-85
2021/12/02 05:25:44;;;;;;;29.98;5.43;;;;;;;2.30;100.00;100432.81;4992576;28;20054;-87
2021/12/02 05:28:15;;;;;;;21.02;4.53;;;;;;;2.74;100.00;100449.66;4977441;28;20062;-87
2021/12/02 05:30:41;;;;;;;16.30;3.65;;;;;;;2.46;100.00;100419.78;4988062;28;20042;-87
2021/12/02 05:33:08;;;;;;;16.20;4.30;;;;;;;2.59;100.00;100435.16;4990789;28;20046;-87
2021/12/02 05:35:35;;;;;;;16.95;3.10;;;;;;;2.51;100.00;100452.47;4991765;28;20046;-87
2021/12/02 05:38:03;;;;;;;19.00;3.78;;;;;;;2.62;100.00;100441.16;4991464;28;20046;-87
2021/12/02 05:40:31;;;;;;;18.15;3.58;;;;;;;2.61;100.00;100448.91;4989461;28;20153;-87
2021/12/02 05:42:58;;;;;;;16.35;3.85;;;;;;;2.47;100.00;100438.72;4990871;28;20050;-88
2021/12/02 05:45:25;;;;;;;18.35;3.90;;;;;;;2.59;100.00;100437.75;4993331;28;20065;-88
2021/12/02 05:47:51;;;;;;;23.88;4.07;;;;;;;2.54;100.00;100430.03;4972043;28;20057;-88
2021/12/02 05:50:18;;;;;;;20.85;5.32;;;;;;;2.53;100.00;100438.63;4989235;28;20480;-88
2021/12/02 05:52:45;;;;;;;23.25;4.88;;;;;;;2.70;100.00;100435.06;4991264;28;20060;-87
2021/12/02 05:55:12;;;;;;;20.55;4.38;;;;;;;2.61;100.00;100430.81;5007382;28;20057;-88
2021/12/02 05:57:39;;;;;;;24.38;3.78;;;;;;;2.52;100.00;100423.16;5004539;28;20958;-88
2021/12/02 06:00:07;;;;;;;19.63;3.65;;;;;;;2.68;100.00;100444.56;4986855;28;20042;-88
2021/12/02 06:02:37;;;;;;;22.83;4.28;;;;;;;2.71;100.00;100409.19;4989374;28;20440;-87
2021/12/02 06:05:05;;;;;;;21.88;5.38;;;;;;;2.66;100.00;100431.63;4988161;28;20100;-88
2021/12/02 06:07:32;;;;;;;25.35;3.78;;;;;;;2.88;100.00;100439.16;4986951;28;20046;-88
2021/12/02 06:10:04;;;;;;;30.58;6.20;;;;;;;2.81;100.00;100434.03;4990167;28;20058;-89
2021/12/02 06:12:31;;;;;;;21.27;4.07;;;;;;;2.75;100.00;100434.13;4986244;28;20145;-87
2021/12/02 06:14:58;;;;;;;23.42;4.30;;;;;;;2.71;100.00;100454.84;4984922;28;20049;-87
2021/12/02 06:17:25;;;;;;;19.88;4.50;;;;;;;2.83;100.00;100465.94;4985065;28;20050;-87
2021/12/02 06:19:52;;;;;;;17.60;3.85;;;;;;;2.88;100.00;100462.44;5000055;28;20564;-86
2021/12/02 06:22:18;;;;;;;28.92;3.65;;;;;;;2.98;100.00;100443.38;4988827;28;20428;-87
2021/12/02 06:25:05;;;;;;;23.40;3.78;;;;;;;3.07;100.00;100484.66;4982441;28;20145;-88
2021/12/02 06:27:32;;;;;;;17.27;4.45;;;;;;;3.03;100.00;100488.16;5006513;28;20453;-88
2021/12/02 06:29:59;;;;;;;19.38;3.78;;;;;;;2.85;100.00;100494.34;4992454;28;20042;-87
2021/12/02 06:32:26;;;;;;;18.42;3.22;;;;;;;3.04;100.00;100501.03;5002431;28;20082;-88
2021/12/02 06:34:53;;;;;;;23.17;4.13;;;;;;;3.08;100.00;100509.66;5004328;28;20061;-88
2021/12/02 06:37:23;;;;;;;22.23;4.43;;;;;;;2.66;100.00;100488.50;5002929;28;20046;-88
2021/12/02 06:39:50;;;;;;;14.93;3.53;;;;;;;2.57;100.00;100510.13;4993817;28;20046;-88
2021/12/02 06:42:17;;;;;;;17.90;5.03;;;;;;;2.70;100.00;100507.44;4993057;28;20064;-89
2021/12/02 06:44:44;;;;;;;19.48;5.10;;;;;;;2.87;100.00;100530.53;4991703;28;20048;-88
2021/12/02 06:47:11;;;;;;;26.23;4.53;;;;;;;2.97;100.00;100533.03;4989596;28;20071;-88
2021/12/02 06:49:39;;;;;;;21.15;3.83;;;;;;;2.98;100.00;100545.09;4986470;28;20046;-87
2021/12/02 06:52:12;;;;;;;18.48;4.05;;;;;;;3.02;100.00;100525.22;4986521;28;20054;-89
2021/12/02 06:54:39;;;;;;;16.88;4.13;;;;;;;2.80;100.00;100532.34;4991121;28;20062;-89
2021/12/02 06:57:07;;;;;;;14.63;4.25;;;;;;;2.62;100.00;100530.75;5003451;28;20064;-89
2021/12/02 06:59:38;;;;;;;18.77;4.47;;;;;;;2.63;100.00;100546.25;5000908;28;20050;-89
2021/12/02 07:02:05;;;;;;;13.38;3.33;;;;;;;1.91;100.00;100549.31;5003711;28;20406;-89
2021/12/02 07:04:32;;;;;;;19.73;3.63;;;;;;;2.14;100.00;100550.91;5001666;28;20062;-88
2021/12/02 07:06:59;;;;;;;12.57;2.95;;;;;;;2.01;100.00;100563.03;4984999;28;20484;-89
2021/12/02 07:09:25;;;;;;;12.15;3.40;;;;;;;2.05;100.00;100554.41;4991399;28;20051;-89
2021/12/02 07:11:52;;;;;;;15.30;3.88;;;;;;;2.30;100.00;100555.09;5004278;28;20050;-89
2021/12/02 07:14:21;;;;;;;11.52;3.10;;;;;;;2.25;100.00;100559.47;5007123;28;20460;-88
2021/12/02 07:16:48;;;;;;;20.23;3.38;;;;;;;2.22;100.00;100559.47;4994026;28;20464;-88
2021/12/02 07:19:15;;;;;;;6.20;1.90;;;;;;;2.20;100.00;100576.72;4993519;28;20078;-88
2021/12/02 07:21:42;;;;;;;12.55;2.53;;;;;;;2.33;100.00;100551.66;5004717;28;20791;-88
2021/12/02 07:24:14;;;;;;;13.35;2.60;;;;;;;2.32;100.00;100550.81;4993723;28;20050;-88
2021/12/02 07:27:01;;;;;;;9.40;2.58;;;;;;;2.45;100.00;100549.84;4990378;28;20053;-88
2021/12/02 07:29:28;;;;;;;10.05;2.13;;;;;;;2.35;100.00;100550.75;4986273;28;20465;-87
2021/12/02 07:31:55;;;;;;;10.05;2.00;;;;;;;2.12;100.00;100519.91;4986171;28;20050;-88
2021/12/02 07:34:25;;;;;;;16.80;2.75;;;;;;;2.38;100.00;100539.56;4990557;28;20046;-87
2021/12/02 07:36:55;;;;;;;8.32;2.05;;;;;;;2.28;100.00;100559.44;5005137;28;20129;-85
2021/12/02 07:39:23;;;;;;;8.60;2.10;;;;;;;1.93;100.00;100493.38;4992068;28;20053;-86
2021/12/02 07:41:50;;;;;;;12.05;2.95;;;;;;;2.27;100.00;100537.06;4987592;28;20080;-86
2021/12/02 07:44:18;;;;;;;9.02;2.20;;;;;;;2.17;100.00;100500.09;4978575;28;20474;-86
2021/12/02 07:46:45;;;;;;;12.90;3.63;;;;;;;2.28;100.00;100541.34;5005063;28;20400;-86
2021/12/02 07:49:14;;;;;;;20.45;3.75;;;;;;;2.49;100.00;100576.53;4986367;28;20400;-86
2021/12/02 07:51:45;;;;;;;18.85;5.13;;;;;;;2.39;100.00;100544.72;4990962;28;20050;-86
2021/12/02 07:54:15;;;;;;;15.43;4.38;;;;;;;2.47;100.00;100578.25;4993458;28;20057;-87
2021/12/02 07:56:47;;;;;;;24.52;4.80;;;;;;;2.32;100.00;100568.91;4993578;28;20076;-86
2021/12/02 07:59:18;;;;;;;14.95;3.97;;;;;;;2.14;100.00;100561.25;4993560;28;20416;-87
2021/12/02 08:01:45;;;;;;;16.45;3.50;;;;;;;2.23;100.00;100585.31;4993220;28;20060;-88
2021/12/02 08:04:13;;;;;;;17.70;3.53;;;;;;;2.42;100.00;100603.28;4989115;28;20046;-86
2021/12/02 08:06:42;;;;;;;20.02;5.28;;;;;;;1.99;100.00;100544.13;4995736;28;20050;-87
2021/12/02 08:09:13;;;;;;;12.82;3.13;;;;;;;2.49;100.00;100591.19;4993805;28;20046;-87
2021/12/02 08:11:40;;;;;;;20.95;5.20;;;;;;;2.61;100.00;100615.22;4991770;28;20050;-86
2021/12/02 08:14:12;;;;;;;15.13;3.50;;;;;;;2.38;100.00;100615.34;4993160;28;20145;-85
2021/12/02 08:16:39;;;;;;;18.27;4.18;;;;;;;2.75;100.00;100629.78;4992074;28;20057;-86
2021/12/02 08:19:06;;;;;;;17.15;3.88;;;;;;;2.75;100.00;100640.13;4992257;28;20050;-87
2021/12/02 08:21:33;;;;;;;19.50;4.43;;;;;;;2.73;100.00;100639.28;4991428;28;20051;-87
2021/12/02 08:24:00;;;;;;;18.70;3.92;;;;;;;2.64;100.00;100633.28;4982010;28;20415;-87
2021/12/02 08:26:27;;;;;;;29.60;5.32;;;;;;;2.31;100.00;100628.31;4991599;28;20105;-87
2021/12/02 08:28:54;;;;;;;18.73;2.92;;;;;;;2.14;100.00;100612.91;4992245;28;20564;-87
2021/12/02 08:31:20;;;;;;;13.27;3.60;;;;;;;2.23;100.00;100625.75;4992769;28;20042;-90
2021/12/02 08:33:50;;;;;;;19.35;3.50;;;;;;;2.41;100.00;100611.91;5004337;28;20056;-85
2021/12/02 08:36:18;;;;;;;18.92;4.00;;;;;;;2.46;100.00;100630.81;5005170;28;20051;-87
2021/12/02 08:38:47;;;;;;;14.52;3.25;;;;;;;2.39;100.00;100629.13;5004484;28;20054;-87
2021/12/02 08:41:17;;;;;;;17.25;3.38;;;;;;;2.11;100.00;100630.97;4982203;28;20058;-87
2021/12/02 08:43:46;;;;;;;12.10;2.92;;;;;;;2.38;100.00;100630.00;5006584;28;20411;-88
2021/12/02 08:46:14;;;;;;;18.15;3.40;;;;;;;2.39;100.00;100623.94;4992737;28;20046;-87
2021/12/02 08:48:42;;;;;;;18.80;4.05;;;;;;;2.49;100.00;100635.13;4987580;28;20061;-88
2021/12/02 08:51:08;;;;;;;16.90;3.83;;;;;;;2.18;100.00;100605.13;4977987;28;20051;-87
2021/12/02 08:53:35;;;;;;;14.88;3.00;;;;;;;2.28;100.00;100622.31;4991823;28;20043;-88
2021/12/02 08:56:02;;;;;;;17.45;3.63;;;;;;;2.45;100.00;100654.94;4992437;28;20052;-88
2021/12/02 08:58:29;;;;;;;13.50;3.38;;;;;;;2.47;100.00;100651.47;4991713;28;20488;-88
2021/12/02 09:00:56;;;;;;;11.98;3.85;;;;;;;2.52;100.00;100646.28;4990760;28;20043;-88
2021/12/02 09:03:23;;;;;;;14.35;3.22;;;;;;;2.39;100.00;100600.69;4992095;28;20054;-88
2021/12/02 09:05:51;;;;;;;14.88;3.85;;;;;;;2.34;100.00;100587.81;4991802;28;20439;-88
2021/12/02 09:08:20;;;;;;;8.40;2.42;;;;;;;2.40;100.00;100594.69;4991752;28;20046;-88
2021/12/02 09:10:46;;;;;;;16.70;2.88;;;;;;;2.74;100.00;100641.81;4992522;28;20057;-88
2021/12/02 09:13:13;;;;;;;8.43;2.58;;;;;;;2.38;100.00;100578.31;4992227;28;20125;-87
2021/12/02 09:15:40;;;;;;;11.25;2.78;;;;;;;2.60;100.00;100657.47;4991391;28;20072;-88
2021/12/02 09:18:07;;;;;;;15.15;3.42;;;;;;;2.46;100.00;100577.41;4991641;28;20062;-87
2021/12/02 09:20:34;;;;;;;14.23;3.40;;;;;;;2.78;100.00;100635.78;4990924;28;20071;-89
2021/12/02 09:23:01;;;;;;;12.73;2.55;;;;;;;2.85;100.00;100659.84;4992449;28;20050;-89
2021/12/02 09:25:28;;;;;;;5.70;2.17;;;;;;;3.11;100.00;100641.53;4991364;28;20542;-89
2021/12/02 09:27:55;;;;;;;10.70;2.78;;;;;;;3.13;100.00;100649.31;4992907;28;20046;-89
2021/12/02 09:30:24;;;;;;;15.23;2.45;;;;;;;3.12;100.00;100655.38;4989484;28;20046;-89
2021/12/02 09:32:51;;;;;;;14.27;2.75;;;;;;;2.86;100.00;100643.47;4991036;28;20047;-89
2021/12/02 09:35:18;;;;;;;7.57;2.53;;;;;;;3.02;100.00;100660.59;4990639;28;20039;-89
2021/12/02 09:37:46;;;;;;;7.78;1.98;;;;;;;2.92;100.00;100681.38;4989911;28;20065;-89
2021/12/02 09:40:14;;;;;;;12.10;3.25;;;;;;;2.93;100.00;100665.84;5004225;28;20504;-88
2021/12/02 09:42:43;;;;;;;10.65;2.28;;;;;;;2.99;100.00;100675.28;4986266;28;20055;-88
2021/12/02 09:45:10;;;;;;;13.70;2.63;;;;;;;2.71;100.00;100674.59;4982071;28;20046;-88
2021/12/02 09:47:40;;;;;;;15.60;2.55;;;;;;;3.02;100.00;100685.59;4990767;28;20042;-88
2021/12/02 09:50:27;;;;;;;12.85;3.17;;;;;;;2.91;100.00;100715.88;4991924;28;20050;-88
2021/12/02 09:52:59;;;;;;;29.70;4.07;;;;;;;3.07;100.00;100708.88;4991150;28;20476;-88
2021/12/02 09:56:29;;;;;;;12.13;3.10;;;;;;;3.02;100.00;100730.44;4990900;28;20050;-89
2021/12/02 09:58:25;;;;;;;9.88;2.00;;;;;;;3.41;100.00;100728.41;4991558;28;20065;-90
2021/12/02 10:06:04;;;;;;;23.67;4.63;;;;;;;3.39;100.00;100726.72;4998030;28;20058;-89
2021/12/02 10:08:52;;;;;;;8.68;2.53;;;;;;;3.57;100.00;100736.91;4996682;28;20046;-88
2021/12/02 10:11:46;;;;;;;11.70;2.67;;;;;;;3.48;100.00;100731.81;4988752;28;20046;-91
2021/12/02 10:14:21;;;;;;;12.05;2.50;;;;;;;3.30;100.00;100716.44;4983426;28;20697;-88
2021/12/02 10:16:51;;;;;;;16.50;3.30;;;;;;;3.26;100.00;100718.22;4989657;28;20047;-88
2021/12/02 10:19:21;;;;;;;10.75;2.83;;;;;;;3.19;100.00;100711.38;5007661;28;20054;-89
2021/12/02 10:21:54;;;;;;;8.95;2.03;;;;;;;3.39;100.00;100714.63;4993498;28;20050;-88
2021/12/02 10:24:24;;;;;;;14.25;2.95;;;;;;;3.26;100.00;100704.38;4995168;28;20054;-88
2021/12/02 10:27:01;;;;;;;8.85;2.55;;;;;;;3.52;100.00;100710.19;4992258;28;20051;-88
2021/12/02 10:29:47;;;;;;;13.80;2.85;;;;;;;3.66;100.00;100719.59;4993388;28;20065;-87
2021/12/02 10:32:21;;;;;;;13.40;2.20;;;;;;;3.41;100.00;100723.25;4993559;28;20057;-87
2021/12/02 10:34:52;;;;;;;12.13;2.28;;;;;;;3.39;100.00;100721.53;4991603;28;20165;-87
2021/12/02 10:37:22;;;;;;;10.57;2.20;;;;;;;3.55;100.00;100719.69;4993871;28;20062;-87
2021/12/02 10:40:01;;;;;;;16.33;2.72;;;;;;;3.55;100.00;100730.03;4993766;28;20054;-86
2021/12/02 10:42:30;;;;;;;8.32;2.60;;;;;;;3.49;100.00;100737.84;4993314;28;20047;-86
2021/12/02 10:45:04;;;;;;;11.02;2.42;;;;;;;3.34;100.00;100741.44;4990310;28;20378;-87
2021/12/02 10:47:32;;;;;;;11.85;2.47;;;;;;;3.46;100.00;100743.91;4992225;28;20085;-87
2021/12/02 10:50:09;;;;;;;9.80;2.28;;;;;;;3.53;100.00;100753.34;4994624;28;20058;-87
2021/12/02 10:52:37;;;;;;;8.50;2.30;;;;;;;3.39;100.00;100706.03;4985404;28;20066;-87
2021/12/02 10:55:07;;;;;;;14.57;4.47;;;;;;;3.63;100.00;100755.84;4994848;28;20473;-87
2021/12/02 10:57:37;;;;;;;10.68;3.13;;;;;;;3.49;100.00;100736.13;4984452;28;20057;-87
2021/12/02 11:00:12;;;;;;;11.20;2.78;;;;;;;3.63;100.00;100759.31;4986837;28;20046;-87
2021/12/02 11:02:43;;;;;;;6.40;2.08;;;;;;;3.51;100.00;100756.84;4990942;28;20046;-88
2021/12/02 11:05:20;;;;;;;10.68;2.92;;;;;;;3.54;100.00;100749.03;4986732;28;20500;-89
2021/12/02 11:08:05;;;;;;;6.78;2.03;;;;;;;3.35;100.00;100761.28;4993820;28;20058;-87
2021/12/02 11:10:45;;;;;;;7.20;2.05;;;;;;;3.37;100.00;100738.81;4982838;28;20077;-87
2021/12/02 11:13:19;;;;;;;8.55;3.05;;;;;;;3.16;100.00;100750.19;4985131;28;20050;-88
2021/12/02 11:15:46;;;;;;;6.63;2.53;;;;;;;3.33;100.00;100752.63;4991355;28;20050;-87
2021/12/02 11:18:16;;;;;;;7.40;2.13;;;;;;;3.28;100.00;100747.50;4990077;28;20050;-87
2021/12/02 11:20:50;;;;;;;5.93;1.70;;;;;;;3.47;100.00;100758.59;4984508;28;20089;-87
2021/12/02 11:23:28;;;;;;;6.65;1.85;;;;;;;3.41;100.00;100748.28;4993525;28;20066;-87
2021/12/02 11:26:20;;;;;;;4.88;1.88;;;;;;;3.59;100.00;100755.03;4993694;28;20526;-87
2021/12/02 11:28:47;;;;;;;7.05;2.03;;;;;;;3.53;100.00;100744.75;4989798;28;20050;-88
2021/12/02 11:31:17;;;;;;;10.35;2.33;;;;;;;3.67;100.00;100770.50;4993607;28;20767;-87
2021/12/02 11:33:46;;;;;;;7.35;2.10;;;;;;;3.56;100.00;100737.81;4994910;28;20066;-87
2021/12/02 11:36:19;;;;;;;7.22;1.83;;;;;;;3.84;100.00;100744.44;4988238;28;20065;-87
2021/12/02 11:38:49;;;;;;;9.25;2.10;;;;;;;3.89;100.00;100758.22;4994260;28;20634;-87
2021/12/02 11:41:17;;;;;;;8.60;2.47;;;;;;;3.88;100.00;100725.41;4991678;28;20038;-87
2021/12/02 11:43:44;;;;;;;9.95;2.83;;;;;;;4.03;100.00;100734.75;4993913;28;20050;-87
2021/12/02 11:46:12;;;;;;;11.05;2.35;;;;;;;4.08;100.00;100738.16;4993066;28;20502;-87
2021/12/02 11:48:42;;;;;;;17.65;4.93;;;;;;;3.91;100.00;100717.59;4992932;28;20185;-87
2021/12/02 11:51:12;;;;;;;11.65;2.38;;;;;;;4.06;100.00;100720.03;4990319;28;20046;-85
2021/12/02 11:53:39;;;;;;;9.25;2.63;;;;;;;4.06;100.00;100724.38;4999522;28;20046;-88